sensor_id;sensor_type;location;lat;lon;timestamp;P1;durP1;ratioP1;P2;durP2;ratioP2
12689;SDS011;6409;56.294;14.480;2023-11-19T00:00:50;1.70;;;1.70;;
12689;SDS011;6409;56.294;14.480;2023-11-19T00:03:17;2.00;;;2.00;;
12689;SDS011;6409;56.294;14.480;2023-11-19T00:05:45;1.80;;;1.80;;
12689;SDS011;6409;56.294;14.480;2023-11-19T00:08:13;1.80;;;1.80;;
12689;SDS011;6409;56.294;14.480;2023-11-19T00:10:40;1.70;;;1.70;;
12689;SDS011;6409;56.294;14.480;2023-11-19T00:13:07;1.80;;;1.80;;
12689;SDS011;6409;56.294;14.480;2023-11-19T00:15:35;1.80;;;1.80;;
12689;SDS011;6409;56.294;14.480;2023-11-19T00:18:02;1.80;;;1.80;;
12689;SDS011;6409;56.294;14.480;2023-11-19T00:20:29;1.70;;;1.70;;
12689;SDS011;6409;56.294;14.480;2023-11-19T00:22:58;1.80;;;1.80;;
12689;SDS011;6409;56.294;14.480;2023-11-19T00:25:26;1.80;;;1.80;;
12689;SDS011;6409;56.294;14.480;2023-11-19T00:27:53;1.80;;;1.80;;
12689;SDS011;6409;56.294;14.480;2023-11-19T00:30:21;1.80;;;1.80;;
12689;SDS011;6409;56.294;14.480;2023-11-19T00:32:48;2.30;;;2.20;;
12689;SDS011;6409;56.294;14.480;2023-11-19T00:35:15;2.00;;;2.00;;
12689;SDS011;6409;56.294;14.480;2023-11-19T00:37:42;1.90;;;1.90;;
12689;SDS011;6409;56.294;14.480;2023-11-19T00:40:12;2.00;;;2.00;;
12689;SDS011;6409;56.294;14.480;2023-11-19T00:42:41;1.80;;;1.80;;
12689;SDS011;6409;56.294;14.480;2023-11-19T00:45:08;1.80;;;1.80;;
12689;SDS011;6409;56.294;14.480;2023-11-19T00:47:36;1.70;;;1.70;;
12689;SDS011;6409;56.294;14.480;2023-11-19T00:50:03;1.80;;;1.80;;
12689;SDS011;6409;56.294;14.480;2023-11-19T00:52:30;1.90;;;1.90;;
12689;SDS011;6409;56.294;14.480;2023-11-19T00:54:57;1.90;;;1.90;;
12689;SDS011;6409;56.294;14.480;2023-11-19T00:57:25;1.90;;;1.90;;
12689;SDS011;6409;56.294;14.480;2023-11-19T00:59:52;1.90;;;1.90;;
12689;SDS011;6409;56.294;14.480;2023-11-19T01:02:19;2.00;;;2.00;;
12689;SDS011;6409;56.294;14.480;2023-11-19T01:04:46;2.00;;;2.00;;
12689;SDS011;6409;56.294;14.480;2023-11-19T01:07:14;2.10;;;2.10;;
12689;SDS011;6409;56.294;14.480;2023-11-19T01:09:41;2.00;;;2.00;;
12689;SDS011;6409;56.294;14.480;2023-11-19T01:12:08;2.20;;;2.20;;
12689;SDS011;6409;56.294;14.480;2023-11-19T01:14:36;2.10;;;2.10;;
12689;SDS011;6409;56.294;14.480;2023-11-19T01:17:03;2.00;;;2.00;;
12689;SDS011;6409;56.294;14.480;2023-11-19T01:19:31;1.90;;;1.90;;
12689;SDS011;6409;56.294;14.480;2023-11-19T01:21:57;1.70;;;1.70;;
12689;SDS011;6409;56.294;14.480;2023-11-19T01:24:24;1.60;;;1.60;;
12689;SDS011;6409;56.294;14.480;2023-11-19T01:26:53;1.50;;;1.50;;
12689;SDS011;6409;56.294;14.480;2023-11-19T01:29:22;1.53;;;1.53;;
12689;SDS011;6409;56.294;14.480;2023-11-19T01:31:51;1.50;;;1.50;;
12689;SDS011;6409;56.294;14.480;2023-11-19T01:34:18;1.50;;;1.50;;
12689;SDS011;6409;56.294;14.480;2023-11-19T01:36:46;1.60;;;1.60;;
12689;SDS011;6409;56.294;14.480;2023-11-19T01:39:13;1.50;;;1.50;;
12689;SDS011;6409;56.294;14.480;2023-11-19T01:41:42;1.60;;;1.60;;
12689;SDS011;6409;56.294;14.480;2023-11-19T01:44:09;1.50;;;1.50;;
12689;SDS011;6409;56.294;14.480;2023-11-19T01:46:37;1.60;;;1.60;;
12689;SDS011;6409;56.294;14.480;2023-11-19T01:49:06;1.63;;;1.63;;
12689;SDS011;6409;56.294;14.480;2023-11-19T01:51:34;1.53;;;1.53;;
12689;SDS011;6409;56.294;14.480;2023-11-19T01:54:01;1.70;;;1.70;;
12689;SDS011;6409;56.294;14.480;2023-11-19T01:56:28;1.80;;;1.80;;
12689;SDS011;6409;56.294;14.480;2023-11-19T01:58:56;1.80;;;1.80;;
12689;SDS011;6409;56.294;14.480;2023-11-19T02:01:23;2.03;;;1.93;;
12689;SDS011;6409;56.294;14.480;2023-11-19T02:03:50;1.80;;;1.80;;
12689;SDS011;6409;56.294;14.480;2023-11-19T02:06:19;1.73;;;1.73;;
12689;SDS011;6409;56.294;14.480;2023-11-19T02:08:46;1.70;;;1.70;;
12689;SDS011;6409;56.294;14.480;2023-11-19T02:11:13;1.70;;;1.70;;
12689;SDS011;6409;56.294;14.480;2023-11-19T02:13:40;2.07;;;1.97;;
12689;SDS011;6409;56.294;14.480;2023-11-19T02:16:09;1.50;;;1.50;;
12689;SDS011;6409;56.294;14.480;2023-11-19T02:18:36;1.60;;;1.60;;
12689;SDS011;6409;56.294;14.480;2023-11-19T02:21:04;1.60;;;1.60;;
12689;SDS011;6409;56.294;14.480;2023-11-19T02:23:33;1.50;;;1.50;;
12689;SDS011;6409;56.294;14.480;2023-11-19T02:26:01;1.50;;;1.50;;
12689;SDS011;6409;56.294;14.480;2023-11-19T02:28:31;1.40;;;1.40;;
12689;SDS011;6409;56.294;14.480;2023-11-19T02:30:59;1.50;;;1.50;;
12689;SDS011;6409;56.294;14.480;2023-11-19T02:33:26;1.33;;;1.33;;
12689;SDS011;6409;56.294;14.480;2023-11-19T02:35:54;1.30;;;1.30;;
12689;SDS011;6409;56.294;14.480;2023-11-19T02:38:21;1.30;;;1.30;;
12689;SDS011;6409;56.294;14.480;2023-11-19T02:40:48;1.60;;;1.53;;
12689;SDS011;6409;56.294;14.480;2023-11-19T02:43:15;1.30;;;1.30;;
12689;SDS011;6409;56.294;14.480;2023-11-19T02:45:44;1.37;;;1.37;;
12689;SDS011;6409;56.294;14.480;2023-11-19T02:48:11;1.40;;;1.40;;
12689;SDS011;6409;56.294;14.480;2023-11-19T02:50:39;1.50;;;1.50;;
12689;SDS011;6409;56.294;14.480;2023-11-19T02:53:06;1.50;;;1.50;;
12689;SDS011;6409;56.294;14.480;2023-11-19T02:55:33;1.40;;;1.40;;
12689;SDS011;6409;56.294;14.480;2023-11-19T02:58:03;1.40;;;1.40;;
12689;SDS011;6409;56.294;14.480;2023-11-19T03:00:39;1.50;;;1.50;;
12689;SDS011;6409;56.294;14.480;2023-11-19T03:03:15;1.40;;;1.40;;
12689;SDS011;6409;56.294;14.480;2023-11-19T03:05:45;1.40;;;1.40;;
12689;SDS011;6409;56.294;14.480;2023-11-19T03:08:13;1.60;;;1.60;;
12689;SDS011;6409;56.294;14.480;2023-11-19T03:10:40;1.60;;;1.60;;
12689;SDS011;6409;56.294;14.480;2023-11-19T03:13:09;1.50;;;1.50;;
12689;SDS011;6409;56.294;14.480;2023-11-19T03:15:38;1.50;;;1.50;;
12689;SDS011;6409;56.294;14.480;2023-11-19T03:18:05;1.40;;;1.40;;
12689;SDS011;6409;56.294;14.480;2023-11-19T03:20:33;1.50;;;1.50;;
12689;SDS011;6409;56.294;14.480;2023-11-19T03:23:00;1.50;;;1.50;;
12689;SDS011;6409;56.294;14.480;2023-11-19T03:25:27;1.40;;;1.40;;
12689;SDS011;6409;56.294;14.480;2023-11-19T03:27:58;1.40;;;1.40;;
12689;SDS011;6409;56.294;14.480;2023-11-19T03:30:25;1.30;;;1.30;;
12689;SDS011;6409;56.294;14.480;2023-11-19T03:32:53;1.30;;;1.30;;
12689;SDS011;6409;56.294;14.480;2023-11-19T03:35:20;1.30;;;1.30;;
12689;SDS011;6409;56.294;14.480;2023-11-19T03:37:49;1.40;;;1.40;;
12689;SDS011;6409;56.294;14.480;2023-11-19T03:40:16;1.40;;;1.40;;
12689;SDS011;6409;56.294;14.480;2023-11-19T03:42:44;1.40;;;1.40;;
12689;SDS011;6409;56.294;14.480;2023-11-19T03:45:11;1.50;;;1.50;;
12689;SDS011;6409;56.294;14.480;2023-11-19T03:47:38;1.50;;;1.50;;
12689;SDS011;6409;56.294;14.480;2023-11-19T03:50:05;1.50;;;1.50;;
12689;SDS011;6409;56.294;14.480;2023-11-19T03:52:33;1.60;;;1.60;;
12689;SDS011;6409;56.294;14.480;2023-11-19T03:55:02;1.70;;;1.70;;
12689;SDS011;6409;56.294;14.480;2023-11-19T03:57:29;1.70;;;1.70;;
12689;SDS011;6409;56.294;14.480;2023-11-19T03:59:56;1.70;;;1.70;;
12689;SDS011;6409;56.294;14.480;2023-11-19T04:02:24;1.60;;;1.60;;
12689;SDS011;6409;56.294;14.480;2023-11-19T04:04:53;1.50;;;1.50;;
12689;SDS011;6409;56.294;14.480;2023-11-19T04:07:21;1.40;;;1.40;;
12689;SDS011;6409;56.294;14.480;2023-11-19T04:09:48;1.33;;;1.33;;
12689;SDS011;6409;56.294;14.480;2023-11-19T04:12:16;1.50;;;1.50;;
12689;SDS011;6409;56.294;14.480;2023-11-19T04:14:43;1.50;;;1.50;;
12689;SDS011;6409;56.294;14.480;2023-11-19T04:17:10;1.70;;;1.70;;
12689;SDS011;6409;56.294;14.480;2023-11-19T04:19:37;1.50;;;1.50;;
12689;SDS011;6409;56.294;14.480;2023-11-19T04:22:06;1.50;;;1.50;;
12689;SDS011;6409;56.294;14.480;2023-11-19T04:24:33;1.70;;;1.70;;
12689;SDS011;6409;56.294;14.480;2023-11-19T04:27:00;1.60;;;1.60;;
12689;SDS011;6409;56.294;14.480;2023-11-19T04:29:29;1.50;;;1.50;;
12689;SDS011;6409;56.294;14.480;2023-11-19T04:31:56;1.50;;;1.50;;
12689;SDS011;6409;56.294;14.480;2023-11-19T04:34:24;1.40;;;1.40;;
12689;SDS011;6409;56.294;14.480;2023-11-19T04:36:51;1.60;;;1.60;;
12689;SDS011;6409;56.294;14.480;2023-11-19T04:39:18;1.50;;;1.50;;
12689;SDS011;6409;56.294;14.480;2023-11-19T04:41:48;1.80;;;1.80;;
12689;SDS011;6409;56.294;14.480;2023-11-19T04:44:16;1.60;;;1.60;;
12689;SDS011;6409;56.294;14.480;2023-11-19T04:46:45;1.80;;;1.80;;
12689;SDS011;6409;56.294;14.480;2023-11-19T04:49:12;1.77;;;1.77;;
12689;SDS011;6409;56.294;14.480;2023-11-19T04:51:40;1.90;;;1.90;;
12689;SDS011;6409;56.294;14.480;2023-11-19T04:54:07;1.80;;;1.80;;
12689;SDS011;6409;56.294;14.480;2023-11-19T04:56:35;2.00;;;2.00;;
12689;SDS011;6409;56.294;14.480;2023-11-19T04:59:02;2.00;;;2.00;;
12689;SDS011;6409;56.294;14.480;2023-11-19T05:01:30;1.90;;;1.90;;
12689;SDS011;6409;56.294;14.480;2023-11-19T05:03:59;2.00;;;2.00;;
12689;SDS011;6409;56.294;14.480;2023-11-19T05:06:26;1.80;;;1.80;;
12689;SDS011;6409;56.294;14.480;2023-11-19T05:08:54;1.70;;;1.70;;
12689;SDS011;6409;56.294;14.480;2023-11-19T05:11:21;1.70;;;1.70;;
12689;SDS011;6409;56.294;14.480;2023-11-19T05:13:48;1.70;;;1.70;;
12689;SDS011;6409;56.294;14.480;2023-11-19T05:16:15;1.83;;;1.83;;
12689;SDS011;6409;56.294;14.480;2023-11-19T05:18:42;1.70;;;1.70;;
12689;SDS011;6409;56.294;14.480;2023-11-19T05:21:11;1.70;;;1.70;;
12689;SDS011;6409;56.294;14.480;2023-11-19T05:23:38;1.60;;;1.60;;
12689;SDS011;6409;56.294;14.480;2023-11-19T05:26:06;1.80;;;1.80;;
12689;SDS011;6409;56.294;14.480;2023-11-19T05:28:33;1.60;;;1.60;;
12689;SDS011;6409;56.294;14.480;2023-11-19T05:31:00;1.70;;;1.70;;
12689;SDS011;6409;56.294;14.480;2023-11-19T05:33:27;1.63;;;1.63;;
12689;SDS011;6409;56.294;14.480;2023-11-19T05:35:54;1.60;;;1.60;;
12689;SDS011;6409;56.294;14.480;2023-11-19T05:38:23;1.60;;;1.60;;
12689;SDS011;6409;56.294;14.480;2023-11-19T05:40:50;1.77;;;1.70;;
12689;SDS011;6409;56.294;14.480;2023-11-19T05:43:17;1.60;;;1.60;;
12689;SDS011;6409;56.294;14.480;2023-11-19T05:45:44;1.77;;;1.77;;
12689;SDS011;6409;56.294;14.480;2023-11-19T05:48:11;2.03;;;1.93;;
12689;SDS011;6409;56.294;14.480;2023-11-19T05:50:38;1.60;;;1.60;;
12689;SDS011;6409;56.294;14.480;2023-11-19T05:53:05;1.83;;;1.83;;
12689;SDS011;6409;56.294;14.480;2023-11-19T05:55:36;1.70;;;1.70;;
12689;SDS011;6409;56.294;14.480;2023-11-19T05:58:10;2.20;;;2.10;;
12689;SDS011;6409;56.294;14.480;2023-11-19T06:00:38;2.00;;;2.00;;
12689;SDS011;6409;56.294;14.480;2023-11-19T06:03:05;2.10;;;2.10;;
12689;SDS011;6409;56.294;14.480;2023-11-19T06:05:32;2.10;;;2.10;;
12689;SDS011;6409;56.294;14.480;2023-11-19T06:07:59;2.40;;;2.30;;
12689;SDS011;6409;56.294;14.480;2023-11-19T06:10:26;2.40;;;2.30;;
12689;SDS011;6409;56.294;14.480;2023-11-19T06:12:57;2.10;;;2.10;;
12689;SDS011;6409;56.294;14.480;2023-11-19T06:15:24;2.13;;;2.13;;
12689;SDS011;6409;56.294;14.480;2023-11-19T06:17:51;2.27;;;2.20;;
12689;SDS011;6409;56.294;14.480;2023-11-19T06:20:18;2.40;;;2.30;;
12689;SDS011;6409;56.294;14.480;2023-11-19T06:22:46;2.10;;;2.10;;
12689;SDS011;6409;56.294;14.480;2023-11-19T06:25:13;2.10;;;2.10;;
12689;SDS011;6409;56.294;14.480;2023-11-19T06:27:41;2.20;;;2.10;;
12689;SDS011;6409;56.294;14.480;2023-11-19T06:30:09;2.10;;;2.10;;
12689;SDS011;6409;56.294;14.480;2023-11-19T06:32:37;2.00;;;2.00;;
12689;SDS011;6409;56.294;14.480;2023-11-19T06:35:05;2.10;;;2.03;;
12689;SDS011;6409;56.294;14.480;2023-11-19T06:37:32;2.20;;;2.20;;
12689;SDS011;6409;56.294;14.480;2023-11-19T06:39:59;1.87;;;1.87;;
12689;SDS011;6409;56.294;14.480;2023-11-19T06:42:26;1.80;;;1.80;;
12689;SDS011;6409;56.294;14.480;2023-11-19T06:44:53;2.10;;;2.10;;
12689;SDS011;6409;56.294;14.480;2023-11-19T06:47:24;2.00;;;2.00;;
12689;SDS011;6409;56.294;14.480;2023-11-19T06:49:52;2.10;;;2.10;;
12689;SDS011;6409;56.294;14.480;2023-11-19T06:52:19;2.40;;;2.30;;
12689;SDS011;6409;56.294;14.480;2023-11-19T06:54:46;2.00;;;2.00;;
12689;SDS011;6409;56.294;14.480;2023-11-19T06:57:13;2.20;;;2.20;;
12689;SDS011;6409;56.294;14.480;2023-11-19T06:59:40;2.50;;;2.40;;
12689;SDS011;6409;56.294;14.480;2023-11-19T07:02:08;2.20;;;2.20;;
12689;SDS011;6409;56.294;14.480;2023-11-19T07:04:36;2.20;;;2.20;;
12689;SDS011;6409;56.294;14.480;2023-11-19T07:07:03;2.30;;;2.20;;
12689;SDS011;6409;56.294;14.480;2023-11-19T07:09:31;2.50;;;2.40;;
12689;SDS011;6409;56.294;14.480;2023-11-19T07:11:58;2.20;;;2.20;;
12689;SDS011;6409;56.294;14.480;2023-11-19T07:14:26;1.87;;;1.87;;
12689;SDS011;6409;56.294;14.480;2023-11-19T07:16:53;2.30;;;2.20;;
12689;SDS011;6409;56.294;14.480;2023-11-19T07:19:20;1.70;;;1.70;;
12689;SDS011;6409;56.294;14.480;2023-11-19T07:21:49;1.80;;;1.80;;
12689;SDS011;6409;56.294;14.480;2023-11-19T07:24:16;2.10;;;2.10;;
12689;SDS011;6409;56.294;14.480;2023-11-19T07:26:43;2.00;;;2.00;;
12689;SDS011;6409;56.294;14.480;2023-11-19T07:29:10;1.83;;;1.83;;
12689;SDS011;6409;56.294;14.480;2023-11-19T07:31:37;1.90;;;1.90;;
12689;SDS011;6409;56.294;14.480;2023-11-19T07:34:04;2.10;;;2.10;;
12689;SDS011;6409;56.294;14.480;2023-11-19T07:36:31;2.30;;;2.20;;
12689;SDS011;6409;56.294;14.480;2023-11-19T07:39:00;2.20;;;2.20;;
12689;SDS011;6409;56.294;14.480;2023-11-19T07:41:27;2.40;;;2.30;;
12689;SDS011;6409;56.294;14.480;2023-11-19T07:43:54;2.20;;;2.20;;
12689;SDS011;6409;56.294;14.480;2023-11-19T07:46:21;2.40;;;2.30;;
12689;SDS011;6409;56.294;14.480;2023-11-19T07:48:48;2.40;;;2.30;;
12689;SDS011;6409;56.294;14.480;2023-11-19T07:51:15;2.30;;;2.20;;
12689;SDS011;6409;56.294;14.480;2023-11-19T07:53:42;2.40;;;2.30;;
12689;SDS011;6409;56.294;14.480;2023-11-19T07:56:10;2.30;;;2.20;;
12689;SDS011;6409;56.294;14.480;2023-11-19T07:58:37;2.40;;;2.30;;
12689;SDS011;6409;56.294;14.480;2023-11-19T08:01:05;2.40;;;2.30;;
12689;SDS011;6409;56.294;14.480;2023-11-19T08:03:32;2.50;;;2.40;;
12689;SDS011;6409;56.294;14.480;2023-11-19T08:05:59;2.20;;;2.20;;
12689;SDS011;6409;56.294;14.480;2023-11-19T08:08:27;2.40;;;2.30;;
12689;SDS011;6409;56.294;14.480;2023-11-19T08:10:55;2.10;;;2.10;;
12689;SDS011;6409;56.294;14.480;2023-11-19T08:13:23;2.10;;;2.10;;
12689;SDS011;6409;56.294;14.480;2023-11-19T08:15:50;2.23;;;2.23;;
12689;SDS011;6409;56.294;14.480;2023-11-19T08:18:17;2.30;;;2.20;;
12689;SDS011;6409;56.294;14.480;2023-11-19T08:20:44;2.10;;;2.10;;
12689;SDS011;6409;56.294;14.480;2023-11-19T08:23:15;2.07;;;2.07;;
12689;SDS011;6409;56.294;14.480;2023-11-19T08:25:42;2.40;;;2.30;;
12689;SDS011;6409;56.294;14.480;2023-11-19T08:28:09;2.90;;;2.80;;
12689;SDS011;6409;56.294;14.480;2023-11-19T08:30:37;2.80;;;2.70;;
12689;SDS011;6409;56.294;14.480;2023-11-19T08:33:04;2.80;;;2.70;;
12689;SDS011;6409;56.294;14.480;2023-11-19T08:35:32;2.67;;;2.57;;
12689;SDS011;6409;56.294;14.480;2023-11-19T08:37:59;2.80;;;2.70;;
12689;SDS011;6409;56.294;14.480;2023-11-19T08:40:26;2.43;;;2.33;;
12689;SDS011;6409;56.294;14.480;2023-11-19T08:42:54;2.80;;;2.60;;
12689;SDS011;6409;56.294;14.480;2023-11-19T08:45:21;2.33;;;2.27;;
12689;SDS011;6409;56.294;14.480;2023-11-19T08:47:50;2.13;;;2.13;;
12689;SDS011;6409;56.294;14.480;2023-11-19T08:50:18;2.40;;;2.30;;
12689;SDS011;6409;56.294;14.480;2023-11-19T08:52:45;2.23;;;2.13;;
12689;SDS011;6409;56.294;14.480;2023-11-19T08:55:12;2.17;;;2.17;;
12689;SDS011;6409;56.294;14.480;2023-11-19T08:57:39;2.60;;;2.50;;
12689;SDS011;6409;56.294;14.480;2023-11-19T09:00:06;2.50;;;2.40;;
12689;SDS011;6409;56.294;14.480;2023-11-19T09:02:34;2.10;;;2.10;;
12689;SDS011;6409;56.294;14.480;2023-11-19T09:05:03;2.20;;;2.20;;
12689;SDS011;6409;56.294;14.480;2023-11-19T09:07:32;2.27;;;2.17;;
12689;SDS011;6409;56.294;14.480;2023-11-19T09:09:59;2.17;;;2.10;;
12689;SDS011;6409;56.294;14.480;2023-11-19T09:12:26;2.10;;;2.10;;
12689;SDS011;6409;56.294;14.480;2023-11-19T09:14:53;2.23;;;2.13;;
12689;SDS011;6409;56.294;14.480;2023-11-19T09:17:20;2.10;;;2.10;;
12689;SDS011;6409;56.294;14.480;2023-11-19T09:19:47;2.20;;;2.10;;
12689;SDS011;6409;56.294;14.480;2023-11-19T09:22:16;2.47;;;2.37;;
12689;SDS011;6409;56.294;14.480;2023-11-19T09:24:43;2.23;;;2.13;;
12689;SDS011;6409;56.294;14.480;2023-11-19T09:27:10;2.40;;;2.30;;
12689;SDS011;6409;56.294;14.480;2023-11-19T09:29:37;1.90;;;1.90;;
12689;SDS011;6409;56.294;14.480;2023-11-19T09:32:04;2.00;;;2.00;;
12689;SDS011;6409;56.294;14.480;2023-11-19T09:34:32;2.20;;;2.20;;
12689;SDS011;6409;56.294;14.480;2023-11-19T09:36:59;2.20;;;2.20;;
12689;SDS011;6409;56.294;14.480;2023-11-19T09:39:28;2.30;;;2.20;;
12689;SDS011;6409;56.294;14.480;2023-11-19T09:41:55;2.20;;;2.20;;
12689;SDS011;6409;56.294;14.480;2023-11-19T09:44:22;2.10;;;2.10;;
12689;SDS011;6409;56.294;14.480;2023-11-19T09:46:50;2.50;;;2.40;;
12689;SDS011;6409;56.294;14.480;2023-11-19T09:49:17;2.30;;;2.20;;
12689;SDS011;6409;56.294;14.480;2023-11-19T09:51:47;1.90;;;1.90;;
12689;SDS011;6409;56.294;14.480;2023-11-19T09:54:14;2.00;;;2.00;;
12689;SDS011;6409;56.294;14.480;2023-11-19T09:56:43;2.50;;;2.40;;
12689;SDS011;6409;56.294;14.480;2023-11-19T09:59:11;2.40;;;2.30;;
12689;SDS011;6409;56.294;14.480;2023-11-19T10:01:39;2.20;;;2.20;;
12689;SDS011;6409;56.294;14.480;2023-11-19T10:04:06;2.50;;;2.40;;
12689;SDS011;6409;56.294;14.480;2023-11-19T10:06:33;2.20;;;2.20;;
12689;SDS011;6409;56.294;14.480;2023-11-19T10:09:00;2.40;;;2.30;;
12689;SDS011;6409;56.294;14.480;2023-11-19T10:11:30;2.57;;;2.47;;
12689;SDS011;6409;56.294;14.480;2023-11-19T10:13:58;2.70;;;2.60;;
12689;SDS011;6409;56.294;14.480;2023-11-19T10:16:28;2.47;;;2.37;;
12689;SDS011;6409;56.294;14.480;2023-11-19T10:18:56;2.20;;;2.20;;
12689;SDS011;6409;56.294;14.480;2023-11-19T10:21:23;2.90;;;2.80;;
12689;SDS011;6409;56.294;14.480;2023-11-19T10:23:53;2.57;;;2.47;;
12689;SDS011;6409;56.294;14.480;2023-11-19T10:26:22;2.70;;;2.60;;
12689;SDS011;6409;56.294;14.480;2023-11-19T10:28:49;2.80;;;2.70;;
12689;SDS011;6409;56.294;14.480;2023-11-19T10:31:18;2.80;;;2.70;;
12689;SDS011;6409;56.294;14.480;2023-11-19T10:33:49;2.90;;;2.80;;
12689;SDS011;6409;56.294;14.480;2023-11-19T10:36:16;2.80;;;2.70;;
12689;SDS011;6409;56.294;14.480;2023-11-19T10:38:51;2.50;;;2.40;;
12689;SDS011;6409;56.294;14.480;2023-11-19T10:41:26;2.60;;;2.50;;
12689;SDS011;6409;56.294;14.480;2023-11-19T10:43:53;2.50;;;2.40;;
12689;SDS011;6409;56.294;14.480;2023-11-19T10:46:22;2.90;;;2.80;;
12689;SDS011;6409;56.294;14.480;2023-11-19T10:48:49;2.40;;;2.30;;
12689;SDS011;6409;56.294;14.480;2023-11-19T10:51:18;2.70;;;2.60;;
12689;SDS011;6409;56.294;14.480;2023-11-19T10:53:48;2.60;;;2.50;;
12689;SDS011;6409;56.294;14.480;2023-11-19T10:56:16;2.60;;;2.50;;
12689;SDS011;6409;56.294;14.480;2023-11-19T10:58:44;2.90;;;2.80;;
12689;SDS011;6409;56.294;14.480;2023-11-19T11:01:13;2.80;;;2.70;;
12689;SDS011;6409;56.294;14.480;2023-11-19T11:03:45;2.67;;;2.57;;
12689;SDS011;6409;56.294;14.480;2023-11-19T11:06:12;2.50;;;2.40;;
12689;SDS011;6409;56.294;14.480;2023-11-19T11:08:40;2.80;;;2.70;;
12689;SDS011;6409;56.294;14.480;2023-11-19T11:11:07;3.00;;;2.80;;
12689;SDS011;6409;56.294;14.480;2023-11-19T11:13:35;2.83;;;2.73;;
12689;SDS011;6409;56.294;14.480;2023-11-19T11:16:04;2.80;;;2.70;;
12689;SDS011;6409;56.294;14.480;2023-11-19T11:18:33;2.90;;;2.80;;
12689;SDS011;6409;56.294;14.480;2023-11-19T11:21:02;3.00;;;2.90;;
12689;SDS011;6409;56.294;14.480;2023-11-19T11:23:46;2.90;;;2.80;;
12689;SDS011;6409;56.294;14.480;2023-11-19T11:26:33;4.70;;;3.50;;
12689;SDS011;6409;56.294;14.480;2023-11-19T11:29:10;2.70;;;2.60;;
12689;SDS011;6409;56.294;14.480;2023-11-19T11:31:44;2.90;;;2.80;;
12689;SDS011;6409;56.294;14.480;2023-11-19T11:34:31;3.10;;;3.00;;
12689;SDS011;6409;56.294;14.480;2023-11-19T11:37:17;2.83;;;2.73;;
12689;SDS011;6409;56.294;14.480;2023-11-19T11:39:45;2.70;;;2.60;;
12689;SDS011;6409;56.294;14.480;2023-11-19T11:44:59;2.73;;;2.63;;
12689;SDS011;6409;56.294;14.480;2023-11-19T11:50:29;2.77;;;2.67;;
12689;SDS011;6409;56.294;14.480;2023-11-19T11:55:52;2.70;;;2.60;;
12689;SDS011;6409;56.294;14.480;2023-11-19T11:58:29;3.00;;;2.90;;
12689;SDS011;6409;56.294;14.480;2023-11-19T12:00:58;2.97;;;2.87;;
12689;SDS011;6409;56.294;14.480;2023-11-19T12:03:27;3.00;;;2.90;;
12689;SDS011;6409;56.294;14.480;2023-11-19T12:05:54;2.90;;;2.80;;
12689;SDS011;6409;56.294;14.480;2023-11-19T12:08:26;3.17;;;3.07;;
12689;SDS011;6409;56.294;14.480;2023-11-19T12:10:55;2.90;;;2.80;;
12689;SDS011;6409;56.294;14.480;2023-11-19T12:13:24;2.90;;;2.80;;
12689;SDS011;6409;56.294;14.480;2023-11-19T12:16:08;3.10;;;3.00;;
12689;SDS011;6409;56.294;14.480;2023-11-19T12:18:36;3.20;;;3.00;;
12689;SDS011;6409;56.294;14.480;2023-11-19T12:21:05;2.73;;;2.63;;
12689;SDS011;6409;56.294;14.480;2023-11-19T12:23:36;2.70;;;2.60;;
12689;SDS011;6409;56.294;14.480;2023-11-19T12:26:33;2.70;;;2.60;;
12689;SDS011;6409;56.294;14.480;2023-11-19T12:29:00;2.60;;;2.50;;
12689;SDS011;6409;56.294;14.480;2023-11-19T12:31:31;2.80;;;2.70;;
12689;SDS011;6409;56.294;14.480;2023-11-19T12:34:01;2.80;;;2.70;;
12689;SDS011;6409;56.294;14.480;2023-11-19T12:36:38;2.90;;;2.80;;
12689;SDS011;6409;56.294;14.480;2023-11-19T12:39:08;2.90;;;2.80;;
12689;SDS011;6409;56.294;14.480;2023-11-19T12:41:50;2.90;;;2.80;;
12689;SDS011;6409;56.294;14.480;2023-11-19T12:44:18;2.90;;;2.80;;
12689;SDS011;6409;56.294;14.480;2023-11-19T12:46:45;2.60;;;2.50;;
12689;SDS011;6409;56.294;14.480;2023-11-19T12:49:12;2.60;;;2.50;;
12689;SDS011;6409;56.294;14.480;2023-11-19T12:51:39;2.50;;;2.40;;
12689;SDS011;6409;56.294;14.480;2023-11-19T12:54:07;2.90;;;2.80;;
12689;SDS011;6409;56.294;14.480;2023-11-19T12:56:34;3.00;;;2.90;;
12689;SDS011;6409;56.294;14.480;2023-11-19T12:59:09;2.83;;;2.73;;
12689;SDS011;6409;56.294;14.480;2023-11-19T13:01:38;2.93;;;2.83;;
12689;SDS011;6409;56.294;14.480;2023-11-19T13:04:15;2.70;;;2.60;;
12689;SDS011;6409;56.294;14.480;2023-11-19T13:06:44;2.80;;;2.70;;
12689;SDS011;6409;56.294;14.480;2023-11-19T13:09:22;3.10;;;3.00;;
12689;SDS011;6409;56.294;14.480;2023-11-19T13:11:50;3.10;;;3.00;;
12689;SDS011;6409;56.294;14.480;2023-11-19T13:14:17;2.60;;;2.50;;
12689;SDS011;6409;56.294;14.480;2023-11-19T13:16:44;2.80;;;2.70;;
12689;SDS011;6409;56.294;14.480;2023-11-19T13:19:11;2.93;;;2.83;;
12689;SDS011;6409;56.294;14.480;2023-11-19T13:21:38;2.87;;;2.77;;
12689;SDS011;6409;56.294;14.480;2023-11-19T13:24:05;2.80;;;2.70;;
12689;SDS011;6409;56.294;14.480;2023-11-19T13:26:34;2.90;;;2.80;;
12689;SDS011;6409;56.294;14.480;2023-11-19T13:29:01;2.73;;;2.63;;
12689;SDS011;6409;56.294;14.480;2023-11-19T13:31:28;2.60;;;2.50;;
12689;SDS011;6409;56.294;14.480;2023-11-19T13:33:55;3.00;;;2.90;;
12689;SDS011;6409;56.294;14.480;2023-11-19T13:36:23;3.00;;;2.90;;
12689;SDS011;6409;56.294;14.480;2023-11-19T13:38:50;2.80;;;2.70;;
12689;SDS011;6409;56.294;14.480;2023-11-19T13:41:23;3.10;;;3.00;;
12689;SDS011;6409;56.294;14.480;2023-11-19T13:43:52;3.00;;;2.90;;
12689;SDS011;6409;56.294;14.480;2023-11-19T13:46:20;2.90;;;2.80;;
12689;SDS011;6409;56.294;14.480;2023-11-19T13:48:47;2.97;;;2.87;;
12689;SDS011;6409;56.294;14.480;2023-11-19T13:51:15;2.63;;;2.53;;
12689;SDS011;6409;56.294;14.480;2023-11-19T13:53:42;2.63;;;2.53;;
12689;SDS011;6409;56.294;14.480;2023-11-19T13:56:09;2.60;;;2.50;;
12689;SDS011;6409;56.294;14.480;2023-11-19T13:58:37;2.90;;;2.80;;
12689;SDS011;6409;56.294;14.480;2023-11-19T14:01:06;2.80;;;2.70;;
12689;SDS011;6409;56.294;14.480;2023-11-19T14:03:34;2.70;;;2.60;;
12689;SDS011;6409;56.294;14.480;2023-11-19T14:06:01;2.70;;;2.60;;
12689;SDS011;6409;56.294;14.480;2023-11-19T14:08:28;3.17;;;3.00;;
12689;SDS011;6409;56.294;14.480;2023-11-19T14:10:55;3.10;;;3.00;;
12689;SDS011;6409;56.294;14.480;2023-11-19T14:13:22;3.00;;;2.90;;
12689;SDS011;6409;56.294;14.480;2023-11-19T14:15:49;2.90;;;2.80;;
12689;SDS011;6409;56.294;14.480;2023-11-19T14:18:18;3.17;;;3.07;;
12689;SDS011;6409;56.294;14.480;2023-11-19T14:20:45;3.00;;;2.90;;
12689;SDS011;6409;56.294;14.480;2023-11-19T14:23:12;2.93;;;2.83;;
12689;SDS011;6409;56.294;14.480;2023-11-19T14:25:39;3.00;;;2.90;;
12689;SDS011;6409;56.294;14.480;2023-11-19T14:28:06;2.80;;;2.70;;
12689;SDS011;6409;56.294;14.480;2023-11-19T14:30:33;2.70;;;2.60;;
12689;SDS011;6409;56.294;14.480;2023-11-19T14:33:00;13.13;;;2.80;;
12689;SDS011;6409;56.294;14.480;2023-11-19T14:35:29;3.20;;;3.10;;
12689;SDS011;6409;56.294;14.480;2023-11-19T14:37:57;2.60;;;2.50;;
12689;SDS011;6409;56.294;14.480;2023-11-19T14:40:24;2.50;;;2.40;;
12689;SDS011;6409;56.294;14.480;2023-11-19T14:42:51;2.90;;;2.80;;
12689;SDS011;6409;56.294;14.480;2023-11-19T14:45:18;2.80;;;2.70;;
12689;SDS011;6409;56.294;14.480;2023-11-19T14:47:45;3.03;;;2.93;;
12689;SDS011;6409;56.294;14.480;2023-11-19T14:50:12;3.10;;;3.00;;
12689;SDS011;6409;56.294;14.480;2023-11-19T14:52:41;2.70;;;2.60;;
12689;SDS011;6409;56.294;14.480;2023-11-19T14:55:08;3.03;;;2.93;;
12689;SDS011;6409;56.294;14.480;2023-11-19T14:57:36;2.90;;;2.80;;
12689;SDS011;6409;56.294;14.480;2023-11-19T15:00:05;2.70;;;2.60;;
12689;SDS011;6409;56.294;14.480;2023-11-19T15:02:38;2.60;;;2.50;;